sensor_id;sensor_type;location;lat;lon;timestamp;P1;durP1;ratioP1;P2;durP2;ratioP2
78197;SDS011;67472;51.554;7.812;2023-04-27T00:02:38;13.45;;;7.20;;
78197;SDS011;67472;51.554;7.812;2023-04-27T00:05:25;10.40;;;6.75;;
78197;SDS011;67472;51.554;7.812;2023-04-27T00:08:11;9.63;;;6.93;;
78197;SDS011;67472;51.554;7.812;2023-04-27T00:10:57;12.23;;;7.25;;
78197;SDS011;67472;51.554;7.812;2023-04-27T00:13:44;10.95;;;6.72;;
78197;SDS011;67472;51.554;7.812;2023-04-27T00:16:30;10.63;;;7.13;;
78197;SDS011;67472;51.554;7.812;2023-04-27T00:19:18;9.35;;;6.68;;
78197;SDS011;67472;51.554;7.812;2023-04-27T00:22:04;12.15;;;7.80;;
78197;SDS011;67472;51.554;7.812;2023-04-27T00:24:51;11.88;;;7.05;;
78197;SDS011;67472;51.554;7.812;2023-04-27T00:27:37;12.13;;;7.63;;
78197;SDS011;67472;51.554;7.812;2023-04-27T00:30:23;12.75;;;6.80;;
78197;SDS011;67472;51.554;7.812;2023-04-27T00:33:11;9.85;;;6.90;;
78197;SDS011;67472;51.554;7.812;2023-04-27T00:36:00;12.82;;;8.57;;
78197;SDS011;67472;51.554;7.812;2023-04-27T00:38:47;11.43;;;8.15;;
78197;SDS011;67472;51.554;7.812;2023-04-27T00:41:35;11.25;;;8.05;;
78197;SDS011;67472;51.554;7.812;2023-04-27T00:44:22;10.07;;;7.38;;
78197;SDS011;67472;51.554;7.812;2023-04-27T00:47:09;11.10;;;6.93;;
78197;SDS011;67472;51.554;7.812;2023-04-27T00:49:56;8.77;;;6.78;;
78197;SDS011;67472;51.554;7.812;2023-04-27T00:52:45;10.65;;;6.88;;
78197;SDS011;67472;51.554;7.812;2023-04-27T00:55:33;11.05;;;6.60;;
78197;SDS011;67472;51.554;7.812;2023-04-27T00:58:20;9.13;;;6.47;;
78197;SDS011;67472;51.554;7.812;2023-04-27T01:01:08;11.10;;;6.30;;
78197;SDS011;67472;51.554;7.812;2023-04-27T01:03:54;9.15;;;6.50;;
78197;SDS011;67472;51.554;7.812;2023-04-27T01:06:41;9.77;;;6.25;;
78197;SDS011;67472;51.554;7.812;2023-04-27T01:09:29;12.10;;;6.68;;
78197;SDS011;67472;51.554;7.812;2023-04-27T01:12:15;14.80;;;6.60;;
78197;SDS011;67472;51.554;7.812;2023-04-27T01:15:01;11.40;;;7.47;;
78197;SDS011;67472;51.554;7.812;2023-04-27T01:17:56;8.48;;;6.45;;
78197;SDS011;67472;51.554;7.812;2023-04-27T01:20:43;12.27;;;7.03;;
78197;SDS011;67472;51.554;7.812;2023-04-27T01:23:31;11.55;;;7.55;;
78197;SDS011;67472;51.554;7.812;2023-04-27T01:26:17;9.18;;;5.95;;
78197;SDS011;67472;51.554;7.812;2023-04-27T01:29:03;12.93;;;6.53;;
78197;SDS011;67472;51.554;7.812;2023-04-27T01:31:50;9.70;;;7.25;;
78197;SDS011;67472;51.554;7.812;2023-04-27T01:34:36;19.80;;;7.25;;
78197;SDS011;67472;51.554;7.812;2023-04-27T01:37:22;11.52;;;8.07;;
78197;SDS011;67472;51.554;7.812;2023-04-27T01:40:11;10.93;;;7.03;;
78197;SDS011;67472;51.554;7.812;2023-04-27T01:42:57;17.23;;;9.73;;
78197;SDS011;67472;51.554;7.812;2023-04-27T01:45:46;11.25;;;8.38;;
78197;SDS011;67472;51.554;7.812;2023-04-27T01:48:33;10.85;;;8.10;;
78197;SDS011;67472;51.554;7.812;2023-04-27T01:51:19;13.18;;;8.65;;
78197;SDS011;67472;51.554;7.812;2023-04-27T01:54:06;15.93;;;8.35;;
78197;SDS011;67472;51.554;7.812;2023-04-27T01:56:55;12.02;;;7.63;;
78197;SDS011;67472;51.554;7.812;2023-04-27T01:59:42;12.27;;;7.50;;
78197;SDS011;67472;51.554;7.812;2023-04-27T02:02:29;11.18;;;7.72;;
78197;SDS011;67472;51.554;7.812;2023-04-27T02:05:16;11.85;;;7.82;;
78197;SDS011;67472;51.554;7.812;2023-04-27T02:08:04;12.32;;;7.95;;
78197;SDS011;67472;51.554;7.812;2023-04-27T02:10:50;13.00;;;7.90;;
78197;SDS011;67472;51.554;7.812;2023-04-27T02:13:38;11.88;;;7.78;;
78197;SDS011;67472;51.554;7.812;2023-04-27T02:16:24;15.20;;;6.75;;
78197;SDS011;67472;51.554;7.812;2023-04-27T02:19:10;10.55;;;8.05;;
78197;SDS011;67472;51.554;7.812;2023-04-27T02:21:56;15.35;;;8.40;;
78197;SDS011;67472;51.554;7.812;2023-04-27T02:24:43;13.63;;;7.32;;
78197;SDS011;67472;51.554;7.812;2023-04-27T02:27:30;12.35;;;7.80;;
78197;SDS011;67472;51.554;7.812;2023-04-27T02:30:19;14.38;;;8.10;;
78197;SDS011;67472;51.554;7.812;2023-04-27T02:33:06;12.10;;;7.80;;
78197;SDS011;67472;51.554;7.812;2023-04-27T02:35:52;12.07;;;7.80;;
78197;SDS011;67472;51.554;7.812;2023-04-27T02:38:39;12.70;;;8.20;;
78197;SDS011;67472;51.554;7.812;2023-04-27T02:41:30;10.57;;;7.78;;
78197;SDS011;67472;51.554;7.812;2023-04-27T02:44:34;12.55;;;7.85;;
78197;SDS011;67472;51.554;7.812;2023-04-27T02:47:41;13.50;;;8.30;;
78197;SDS011;67472;51.554;7.812;2023-04-27T02:50:46;11.45;;;7.68;;
78197;SDS011;67472;51.554;7.812;2023-04-27T02:53:52;12.90;;;7.57;;
78197;SDS011;67472;51.554;7.812;2023-04-27T02:56:58;9.60;;;7.18;;
78197;SDS011;67472;51.554;7.812;2023-04-27T02:59:44;14.35;;;7.57;;
78197;SDS011;67472;51.554;7.812;2023-04-27T03:02:50;11.95;;;7.70;;
78197;SDS011;67472;51.554;7.812;2023-04-27T03:05:55;12.32;;;7.30;;
78197;SDS011;67472;51.554;7.812;2023-04-27T03:08:41;11.65;;;7.40;;
78197;SDS011;67472;51.554;7.812;2023-04-27T03:11:29;13.88;;;7.93;;
78197;SDS011;67472;51.554;7.812;2023-04-27T03:14:15;16.73;;;8.30;;
78197;SDS011;67472;51.554;7.812;2023-04-27T03:17:20;16.63;;;8.52;;
78197;SDS011;67472;51.554;7.812;2023-04-27T03:20:09;19.00;;;7.93;;
78197;SDS011;67472;51.554;7.812;2023-04-27T03:22:56;14.38;;;8.75;;
78197;SDS011;67472;51.554;7.812;2023-04-27T03:25:43;13.70;;;8.48;;
78197;SDS011;67472;51.554;7.812;2023-04-27T03:28:29;13.88;;;8.45;;
78197;SDS011;67472;51.554;7.812;2023-04-27T03:31:15;13.57;;;8.07;;
78197;SDS011;67472;51.554;7.812;2023-04-27T03:34:04;13.90;;;8.18;;
78197;SDS011;67472;51.554;7.812;2023-04-27T03:36:52;14.88;;;7.65;;
78197;SDS011;67472;51.554;7.812;2023-04-27T03:39:39;15.82;;;7.97;;
78197;SDS011;67472;51.554;7.812;2023-04-27T03:42:27;10.77;;;7.38;;
78197;SDS011;67472;51.554;7.812;2023-04-27T03:45:15;11.68;;;7.88;;
78197;SDS011;67472;51.554;7.812;2023-04-27T03:48:04;11.40;;;7.75;;
78197;SDS011;67472;51.554;7.812;2023-04-27T03:50:51;12.15;;;7.75;;
78197;SDS011;67472;51.554;7.812;2023-04-27T03:53:40;15.23;;;9.23;;
78197;SDS011;67472;51.554;7.812;2023-04-27T03:56:26;12.50;;;8.25;;
78197;SDS011;67472;51.554;7.812;2023-04-27T03:59:14;14.73;;;7.72;;
78197;SDS011;67472;51.554;7.812;2023-04-27T04:02:07;15.23;;;8.45;;
78197;SDS011;67472;51.554;7.812;2023-04-27T04:04:55;12.48;;;7.45;;
78197;SDS011;67472;51.554;7.812;2023-04-27T04:07:41;9.88;;;6.95;;
78197;SDS011;67472;51.554;7.812;2023-04-27T04:10:30;11.32;;;7.00;;
78197;SDS011;67472;51.554;7.812;2023-04-27T04:13:16;14.15;;;10.05;;
78197;SDS011;67472;51.554;7.812;2023-04-27T04:16:02;13.48;;;7.88;;
78197;SDS011;67472;51.554;7.812;2023-04-27T04:18:49;13.73;;;7.82;;
78197;SDS011;67472;51.554;7.812;2023-04-27T04:21:35;11.93;;;7.20;;
78197;SDS011;67472;51.554;7.812;2023-04-27T04:24:22;13.40;;;7.85;;
78197;SDS011;67472;51.554;7.812;2023-04-27T04:27:09;9.68;;;7.40;;
78197;SDS011;67472;51.554;7.812;2023-04-27T04:29:55;12.75;;;7.45;;
78197;SDS011;67472;51.554;7.812;2023-04-27T04:32:43;9.85;;;7.03;;
78197;SDS011;67472;51.554;7.812;2023-04-27T04:35:29;13.05;;;7.55;;
78197;SDS011;67472;51.554;7.812;2023-04-27T04:38:17;11.57;;;7.32;;
78197;SDS011;67472;51.554;7.812;2023-04-27T04:41:04;11.18;;;7.70;;
78197;SDS011;67472;51.554;7.812;2023-04-27T04:43:52;12.80;;;8.27;;
78197;SDS011;67472;51.554;7.812;2023-04-27T04:46:39;13.20;;;8.05;;
78197;SDS011;67472;51.554;7.812;2023-04-27T04:49:25;14.02;;;6.90;;
78197;SDS011;67472;51.554;7.812;2023-04-27T04:52:11;12.70;;;7.47;;
78197;SDS011;67472;51.554;7.812;2023-04-27T04:54:57;13.77;;;7.63;;
78197;SDS011;67472;51.554;7.812;2023-04-27T04:57:44;13.10;;;8.30;;
78197;SDS011;67472;51.554;7.812;2023-04-27T05:00:32;18.63;;;7.78;;
78197;SDS011;67472;51.554;7.812;2023-04-27T05:03:18;21.80;;;8.18;;
78197;SDS011;67472;51.554;7.812;2023-04-27T05:06:05;12.60;;;6.60;;
78197;SDS011;67472;51.554;7.812;2023-04-27T05:08:52;15.00;;;7.53;;
78197;SDS011;67472;51.554;7.812;2023-04-27T05:11:38;11.93;;;7.97;;
78197;SDS011;67472;51.554;7.812;2023-04-27T05:14:25;28.25;;;8.27;;
78197;SDS011;67472;51.554;7.812;2023-04-27T05:17:12;11.77;;;7.72;;
78197;SDS011;67472;51.554;7.812;2023-04-27T05:20:07;13.23;;;8.93;;
78197;SDS011;67472;51.554;7.812;2023-04-27T05:24:00;15.13;;;8.40;;
78197;SDS011;67472;51.554;7.812;2023-04-27T05:27:52;16.63;;;9.38;;
78197;SDS011;67472;51.554;7.812;2023-04-27T05:30:40;13.65;;;8.43;;
78197;SDS011;67472;51.554;7.812;2023-04-27T05:33:33;17.52;;;9.23;;
78197;SDS011;67472;51.554;7.812;2023-04-27T05:36:19;15.55;;;9.13;;
78197;SDS011;67472;51.554;7.812;2023-04-27T05:39:07;18.17;;;10.10;;
78197;SDS011;67472;51.554;7.812;2023-04-27T05:41:55;18.95;;;9.68;;
78197;SDS011;67472;51.554;7.812;2023-04-27T05:44:42;19.95;;;10.02;;
78197;SDS011;67472;51.554;7.812;2023-04-27T05:47:29;16.00;;;10.65;;
78197;SDS011;67472;51.554;7.812;2023-04-27T05:50:16;19.90;;;10.50;;
78197;SDS011;67472;51.554;7.812;2023-04-27T05:53:03;16.92;;;10.00;;
78197;SDS011;67472;51.554;7.812;2023-04-27T05:55:49;24.17;;;10.60;;
78197;SDS011;67472;51.554;7.812;2023-04-27T05:58:35;17.67;;;9.40;;
78197;SDS011;67472;51.554;7.812;2023-04-27T06:01:22;18.15;;;10.80;;
78197;SDS011;67472;51.554;7.812;2023-04-27T06:04:08;15.88;;;9.57;;
78197;SDS011;67472;51.554;7.812;2023-04-27T06:06:56;17.20;;;10.30;;
78197;SDS011;67472;51.554;7.812;2023-04-27T06:09:43;17.23;;;10.23;;
78197;SDS011;67472;51.554;7.812;2023-04-27T06:12:29;16.35;;;9.65;;
78197;SDS011;67472;51.554;7.812;2023-04-27T06:15:16;20.70;;;10.15;;
78197;SDS011;67472;51.554;7.812;2023-04-27T06:18:02;11.57;;;8.02;;
78197;SDS011;67472;51.554;7.812;2023-04-27T06:20:49;18.15;;;8.98;;
78197;SDS011;67472;51.554;7.812;2023-04-27T06:23:38;14.90;;;8.43;;
78197;SDS011;67472;51.554;7.812;2023-04-27T06:26:26;12.90;;;8.27;;
78197;SDS011;67472;51.554;7.812;2023-04-27T06:29:12;17.27;;;8.20;;
78197;SDS011;67472;51.554;7.812;2023-04-27T06:31:59;14.55;;;8.18;;
78197;SDS011;67472;51.554;7.812;2023-04-27T06:34:45;14.10;;;7.82;;
78197;SDS011;67472;51.554;7.812;2023-04-27T06:37:33;14.95;;;7.53;;
78197;SDS011;67472;51.554;7.812;2023-04-27T06:40:21;13.88;;;6.63;;
78197;SDS011;67472;51.554;7.812;2023-04-27T06:43:08;8.70;;;5.88;;
78197;SDS011;67472;51.554;7.812;2023-04-27T06:45:54;10.75;;;6.57;;
78197;SDS011;67472;51.554;7.812;2023-04-27T06:48:41;9.20;;;4.97;;
78197;SDS011;67472;51.554;7.812;2023-04-27T06:51:27;16.88;;;5.43;;
78197;SDS011;67472;51.554;7.812;2023-04-27T06:54:13;12.43;;;5.65;;
78197;SDS011;67472;51.554;7.812;2023-04-27T06:57:01;12.23;;;5.50;;
78197;SDS011;67472;51.554;7.812;2023-04-27T06:59:48;7.72;;;4.97;;
78197;SDS011;67472;51.554;7.812;2023-04-27T07:02:35;9.95;;;5.38;;
78197;SDS011;67472;51.554;7.812;2023-04-27T07:05:22;9.98;;;4.90;;
78197;SDS011;67472;51.554;7.812;2023-04-27T07:08:08;7.82;;;4.80;;
78197;SDS011;67472;51.554;7.812;2023-04-27T07:10:54;7.60;;;5.78;;
78197;SDS011;67472;51.554;7.812;2023-04-27T07:13:42;9.38;;;4.93;;
78197;SDS011;67472;51.554;7.812;2023-04-27T07:16:29;9.77;;;5.10;;
78197;SDS011;67472;51.554;7.812;2023-04-27T07:19:15;14.77;;;6.43;;
78197;SDS011;67472;51.554;7.812;2023-04-27T07:22:01;11.93;;;5.30;;
78197;SDS011;67472;51.554;7.812;2023-04-27T07:24:48;7.95;;;4.47;;
78197;SDS011;67472;51.554;7.812;2023-04-27T07:27:34;11.18;;;5.47;;
78197;SDS011;67472;51.554;7.812;2023-04-27T07:30:22;7.60;;;4.65;;
78197;SDS011;67472;51.554;7.812;2023-04-27T07:33:09;9.75;;;4.60;;
78197;SDS011;67472;51.554;7.812;2023-04-27T07:35:56;8.98;;;4.70;;
78197;SDS011;67472;51.554;7.812;2023-04-27T07:38:43;7.82;;;4.80;;
78197;SDS011;67472;51.554;7.812;2023-04-27T07:41:29;8.80;;;4.13;;
78197;SDS011;67472;51.554;7.812;2023-04-27T07:44:17;6.50;;;4.40;;
78197;SDS011;67472;51.554;7.812;2023-04-27T07:47:05;6.40;;;3.50;;
78197;SDS011;67472;51.554;7.812;2023-04-27T07:49:52;6.07;;;3.47;;
78197;SDS011;67472;51.554;7.812;2023-04-27T07:52:39;5.60;;;3.80;;
78197;SDS011;67472;51.554;7.812;2023-04-27T07:55:25;7.97;;;4.18;;
78197;SDS011;67472;51.554;7.812;2023-04-27T07:58:12;9.80;;;3.85;;
78197;SDS011;67472;51.554;7.812;2023-04-27T08:00:58;5.07;;;3.72;;
78197;SDS011;67472;51.554;7.812;2023-04-27T08:03:45;6.30;;;3.33;;
78197;SDS011;67472;51.554;7.812;2023-04-27T08:06:31;6.30;;;3.00;;
78197;SDS011;67472;51.554;7.812;2023-04-27T08:09:18;5.28;;;2.90;;
78197;SDS011;67472;51.554;7.812;2023-04-27T08:12:05;5.40;;;3.03;;
78197;SDS011;67472;51.554;7.812;2023-04-27T08:14:51;7.03;;;3.47;;
78197;SDS011;67472;51.554;7.812;2023-04-27T08:17:37;10.80;;;3.47;;
78197;SDS011;67472;51.554;7.812;2023-04-27T08:20:26;6.28;;;3.40;;
78197;SDS011;67472;51.554;7.812;2023-04-27T08:23:12;10.50;;;3.58;;
78197;SDS011;67472;51.554;7.812;2023-04-27T08:25:59;4.25;;;2.90;;
78197;SDS011;67472;51.554;7.812;2023-04-27T08:28:45;7.50;;;3.38;;
78197;SDS011;67472;51.554;7.812;2023-04-27T08:31:32;5.35;;;3.40;;
78197;SDS011;67472;51.554;7.812;2023-04-27T08:34:19;4.80;;;2.85;;
78197;SDS011;67472;51.554;7.812;2023-04-27T08:37:07;4.57;;;2.75;;
78197;SDS011;67472;51.554;7.812;2023-04-27T08:39:53;5.30;;;2.50;;
78197;SDS011;67472;51.554;7.812;2023-04-27T08:42:41;9.15;;;3.38;;
78197;SDS011;67472;51.554;7.812;2023-04-27T08:45:42;3.63;;;3.13;;
78197;SDS011;67472;51.554;7.812;2023-04-27T08:48:32;5.03;;;2.75;;
78197;SDS011;67472;51.554;7.812;2023-04-27T08:51:19;4.05;;;3.10;;
78197;SDS011;67472;51.554;7.812;2023-04-27T08:54:09;3.83;;;2.78;;
78197;SDS011;67472;51.554;7.812;2023-04-27T08:56:55;3.47;;;2.80;;
78197;SDS011;67472;51.554;7.812;2023-04-27T08:59:42;3.90;;;2.42;;
78197;SDS011;67472;51.554;7.812;2023-04-27T09:02:28;6.65;;;2.90;;
78197;SDS011;67472;51.554;7.812;2023-04-27T09:05:15;3.38;;;2.22;;
78197;SDS011;67472;51.554;7.812;2023-04-27T09:08:02;5.15;;;2.50;;
78197;SDS011;67472;51.554;7.812;2023-04-27T09:10:53;2.88;;;1.98;;
78197;SDS011;67472;51.554;7.812;2023-04-27T09:13:40;3.85;;;2.20;;
78197;SDS011;67472;51.554;7.812;2023-04-27T09:16:29;4.15;;;2.67;;
78197;SDS011;67472;51.554;7.812;2023-04-27T09:19:22;3.33;;;2.40;;
78197;SDS011;67472;51.554;7.812;2023-04-27T09:22:09;5.13;;;3.03;;
78197;SDS011;67472;51.554;7.812;2023-04-27T09:24:58;5.13;;;2.53;;
78197;SDS011;67472;51.554;7.812;2023-04-27T09:27:46;2.83;;;2.20;;
78197;SDS011;67472;51.554;7.812;2023-04-27T09:30:32;5.35;;;2.33;;
78197;SDS011;67472;51.554;7.812;2023-04-27T09:33:24;4.13;;;1.92;;
78197;SDS011;67472;51.554;7.812;2023-04-27T09:36:12;4.75;;;2.30;;
78197;SDS011;67472;51.554;7.812;2023-04-27T09:39:01;7.07;;;2.42;;
78197;SDS011;67472;51.554;7.812;2023-04-27T09:41:48;3.22;;;2.38;;
78197;SDS011;67472;51.554;7.812;2023-04-27T09:44:36;6.13;;;2.78;;
78197;SDS011;67472;51.554;7.812;2023-04-27T09:47:22;2.28;;;2.08;;
78197;SDS011;67472;51.554;7.812;2023-04-27T09:50:12;5.28;;;2.30;;
78197;SDS011;67472;51.554;7.812;2023-04-27T09:52:59;4.40;;;2.53;;
78197;SDS011;67472;51.554;7.812;2023-04-27T09:55:46;3.45;;;3.17;;
78197;SDS011;67472;51.554;7.812;2023-04-27T10:02:07;3.83;;;2.38;;
78197;SDS011;67472;51.554;7.812;2023-04-27T10:05:07;2.55;;;2.35;;
78197;SDS011;67472;51.554;7.812;2023-04-27T10:08:07;4.03;;;2.22;;
78197;SDS011;67472;51.554;7.812;2023-04-27T10:10:54;6.72;;;2.88;;
78197;SDS011;67472;51.554;7.812;2023-04-27T10:13:49;3.72;;;2.42;;
78197;SDS011;67472;51.554;7.812;2023-04-27T10:16:42;2.28;;;2.05;;
78197;SDS011;67472;51.554;7.812;2023-04-27T10:19:32;6.10;;;2.67;;
78197;SDS011;67472;51.554;7.812;2023-04-27T10:22:18;3.75;;;2.58;;
78197;SDS011;67472;51.554;7.812;2023-04-27T10:25:11;3.15;;;2.72;;
78197;SDS011;67472;51.554;7.812;2023-04-27T10:28:00;7.72;;;2.58;;
78197;SDS011;67472;51.554;7.812;2023-04-27T10:30:47;4.53;;;2.60;;
78197;SDS011;67472;51.554;7.812;2023-04-27T10:33:40;3.65;;;2.17;;
78197;SDS011;67472;51.554;7.812;2023-04-27T10:36:34;5.75;;;3.15;;
78197;SDS011;67472;51.554;7.812;2023-04-27T10:39:22;4.72;;;2.50;;
78197;SDS011;67472;51.554;7.812;2023-04-27T10:42:26;3.58;;;2.40;;
78197;SDS011;67472;51.554;7.812;2023-04-27T10:45:12;5.90;;;2.75;;
78197;SDS011;67472;51.554;7.812;2023-04-27T10:47:59;3.38;;;2.65;;
78197;SDS011;67472;51.554;7.812;2023-04-27T10:50:45;2.97;;;2.67;;
78197;SDS011;67472;51.554;7.812;2023-04-27T10:53:34;3.60;;;2.15;;
78197;SDS011;67472;51.554;7.812;2023-04-27T10:56:20;3.45;;;2.53;;
78197;SDS011;67472;51.554;7.812;2023-04-27T10:59:08;3.72;;;3.05;;
78197;SDS011;67472;51.554;7.812;2023-04-27T11:01:54;2.63;;;2.35;;
78197;SDS011;67472;51.554;7.812;2023-04-27T11:04:41;4.05;;;2.53;;
78197;SDS011;67472;51.554;7.812;2023-04-27T11:07:27;4.53;;;2.40;;
78197;SDS011;67472;51.554;7.812;2023-04-27T11:10:15;4.75;;;2.55;;
78197;SDS011;67472;51.554;7.812;2023-04-27T11:13:09;5.82;;;3.20;;
78197;SDS011;67472;51.554;7.812;2023-04-27T11:15:57;5.18;;;2.60;;
78197;SDS011;67472;51.554;7.812;2023-04-27T11:18:44;3.75;;;2.58;;
78197;SDS011;67472;51.554;7.812;2023-04-27T11:21:31;3.22;;;2.92;;
78197;SDS011;67472;51.554;7.812;2023-04-27T11:24:17;4.65;;;3.47;;
78197;SDS011;67472;51.554;7.812;2023-04-27T11:27:05;3.58;;;2.92;;
78197;SDS011;67472;51.554;7.812;2023-04-27T11:29:51;4.43;;;2.67;;
78197;SDS011;67472;51.554;7.812;2023-04-27T11:32:39;5.35;;;2.80;;
78197;SDS011;67472;51.554;7.812;2023-04-27T11:35:32;5.00;;;2.63;;
78197;SDS011;67472;51.554;7.812;2023-04-27T11:38:18;2.85;;;2.63;;
78197;SDS011;67472;51.554;7.812;2023-04-27T11:41:05;4.05;;;3.10;;
78197;SDS011;67472;51.554;7.812;2023-04-27T11:43:53;3.58;;;2.50;;
78197;SDS011;67472;51.554;7.812;2023-04-27T11:46:42;5.45;;;3.08;;
78197;SDS011;67472;51.554;7.812;2023-04-27T11:49:30;5.90;;;3.03;;
78197;SDS011;67472;51.554;7.812;2023-04-27T11:52:17;4.05;;;3.20;;
78197;SDS011;67472;51.554;7.812;2023-04-27T11:55:04;3.80;;;2.78;;
78197;SDS011;67472;51.554;7.812;2023-04-27T11:57:55;3.25;;;2.65;;
78197;SDS011;67472;51.554;7.812;2023-04-27T12:00:44;4.18;;;3.22;;
78197;SDS011;67472;51.554;7.812;2023-04-27T12:03:31;5.82;;;3.05;;
78197;SDS011;67472;51.554;7.812;2023-04-27T12:06:22;3.10;;;2.80;;
78197;SDS011;67472;51.554;7.812;2023-04-27T12:09:09;4.00;;;3.03;;
78197;SDS011;67472;51.554;7.812;2023-04-27T12:11:55;3.70;;;2.90;;
78197;SDS011;67472;51.554;7.812;2023-04-27T12:14:42;3.92;;;3.25;;
78197;SDS011;67472;51.554;7.812;2023-04-27T12:17:29;6.55;;;3.10;;
78197;SDS011;67472;51.554;7.812;2023-04-27T12:20:16;5.20;;;3.40;;
78197;SDS011;67472;51.554;7.812;2023-04-27T12:23:02;5.28;;;3.17;;
78197;SDS011;67472;51.554;7.812;2023-04-27T12:25:48;4.57;;;2.80;;
78197;SDS011;67472;51.554;7.812;2023-04-27T12:28:35;8.80;;;3.40;;
78197;SDS011;67472;51.554;7.812;2023-04-27T12:31:21;3.92;;;3.50;;
78197;SDS011;67472;51.554;7.812;2023-04-27T12:34:10;4.82;;;3.40;;
78197;SDS011;67472;51.554;7.812;2023-04-27T12:36:56;5.78;;;3.85;;
78197;SDS011;67472;51.554;7.812;2023-04-27T12:39:43;6.32;;;3.63;;
78197;SDS011;67472;51.554;7.812;2023-04-27T12:42:30;6.50;;;3.47;;
78197;SDS011;67472;51.554;7.812;2023-04-27T12:45:16;5.53;;;3.60;;
78197;SDS011;67472;51.554;7.812;2023-04-27T12:48:04;6.28;;;4.05;;
78197;SDS011;67472;51.554;7.812;2023-04-27T12:50:52;4.80;;;3.35;;
78197;SDS011;67472;51.554;7.812;2023-04-27T12:53:38;4.25;;;3.42;;
78197;SDS011;67472;51.554;7.812;2023-04-27T12:56:25;4.53;;;3.90;;
78197;SDS011;67472;51.554;7.812;2023-04-27T12:59:11;5.43;;;3.60;;
78197;SDS011;67472;51.554;7.812;2023-04-27T13:01:58;4.32;;;3.33;;
78197;SDS011;67472;51.554;7.812;2023-04-27T13:04:45;5.05;;;4.18;;
78197;SDS011;67472;51.554;7.812;2023-04-27T13:07:34;6.30;;;3.65;;
78197;SDS011;67472;51.554;7.812;2023-04-27T13:10:20;4.82;;;3.60;;
78197;SDS011;67472;51.554;7.812;2023-04-27T13:13:07;7.35;;;4.25;;
78197;SDS011;67472;51.554;7.812;2023-04-27T13:15:53;5.15;;;3.83;;
78197;SDS011;67472;51.554;7.812;2023-04-27T13:18:39;8.85;;;4.28;;
78197;SDS011;67472;51.554;7.812;2023-04-27T13:21:30;7.38;;;4.20;;
78197;SDS011;67472;51.554;7.812;2023-04-27T13:24:18;4.80;;;3.63;;
78197;SDS011;67472;51.554;7.812;2023-04-27T13:27:04;8.02;;;4.45;;
78197;SDS011;67472;51.554;7.812;2023-04-27T13:29:50;6.65;;;3.40;;
78197;SDS011;67472;51.554;7.812;2023-04-27T13:32:36;10.25;;;4.45;;
78197;SDS011;67472;51.554;7.812;2023-04-27T13:35:22;6.28;;;3.80;;
78197;SDS011;67472;51.554;7.812;2023-04-27T13:38:09;6.93;;;3.90;;
78197;SDS011;67472;51.554;7.812;2023-04-27T13:40:57;10.80;;;4.32;;
78197;SDS011;67472;51.554;7.812;2023-04-27T13:43:43;6.68;;;4.43;;
78197;SDS011;67472;51.554;7.812;2023-04-27T13:46:29;7.30;;;3.92;;
78197;SDS011;67472;51.554;7.812;2023-04-27T13:49:15;7.80;;;3.95;;
78197;SDS011;67472;51.554;7.812;2023-04-27T13:52:02;6.53;;;4.13;;
78197;SDS011;67472;51.554;7.812;2023-04-27T13:54:48;7.03;;;4.32;;
78197;SDS011;67472;51.554;7.812;2023-04-27T13:57:36;6.38;;;5.00;;
78197;SDS011;67472;51.554;7.812;2023-04-27T14:00:23;8.40;;;4.57;;
78197;SDS011;67472;51.554;7.812;2023-04-27T14:03:11;5.32;;;4.10;;
78197;SDS011;67472;51.554;7.812;2023-04-27T14:05:57;10.35;;;4.00;;
78197;SDS011;67472;51.554;7.812;2023-04-27T14:08:45;7.35;;;4.72;;
78197;SDS011;67472;51.554;7.812;2023-04-27T14:11:31;5.75;;;4.28;;
78197;SDS011;67472;51.554;7.812;2023-04-27T14:14:19;7.45;;;4.25;;
78197;SDS011;67472;51.554;7.812;2023-04-27T14:17:05;5.57;;;4.18;;
78197;SDS011;67472;51.554;7.812;2023-04-27T14:19:52;4.80;;;4.30;;
78197;SDS011;67472;51.554;7.812;2023-04-27T14:22:38;4.65;;;3.95;;
78197;SDS011;67472;51.554;7.812;2023-04-27T14:25:24;6.07;;;4.15;;
78197;SDS011;67472;51.554;7.812;2023-04-27T14:28:13;12.00;;;4.78;;
78197;SDS011;67472;51.554;7.812;2023-04-27T14:31:01;6.18;;;4.65;;
78197;SDS011;67472;51.554;7.812;2023-04-27T14:33:47;6.32;;;4.40;;
78197;SDS011;67472;51.554;7.812;2023-04-27T14:36:33;4.75;;;4.35;;
78197;SDS011;67472;51.554;7.812;2023-04-27T14:39:20;8.07;;;5.05;;
78197;SDS011;67472;51.554;7.812;2023-04-27T14:42:06;10.65;;;4.65;;
78197;SDS011;67472;51.554;7.812;2023-04-27T14:44:53;5.10;;;4.25;;
78197;SDS011;67472;51.554;7.812;2023-04-27T14:47:41;5.22;;;4.05;;
78197;SDS011;67472;51.554;7.812;2023-04-27T14:50:27;4.35;;;3.95;;
78197;SDS011;67472;51.554;7.812;2023-04-27T14:53:14;8.65;;;4.40;;
78197;SDS011;67472;51.554;7.812;2023-04-27T14:56:00;7.18;;;4.35;;
78197;SDS011;67472;51.554;7.812;2023-04-27T14:58:46;8.20;;;4.38;;
78197;SDS011;67472;51.554;7.812;2023-04-27T15:01:33;9.18;;;5.45;;
78197;SDS011;67472;51.554;7.812;2023-04-27T15:04:21;8.80;;;4.65;;
78197;SDS011;67472;51.554;7.812;2023-04-27T15:07:07;6.00;;;4.68;;
78197;SDS011;67472;51.554;7.812;2023-04-27T15:09:54;6.13;;;4.95;;
78197;SDS011;67472;51.554;7.812;2023-04-27T15:12:41;6.05;;;4.47;;
78197;SDS011;67472;51.554;7.812;2023-04-27T15:15:27;8.05;;;4.95;;
78197;SDS011;67472;51.554;7.812;2023-04-27T15:18:14;10.27;;;5.15;;
78197;SDS011;67472;51.554;7.812;2023-04-27T15:21:01;8.55;;;5.40;;
78197;SDS011;67472;51.554;7.812;2023-04-27T15:23:48;7.20;;;5.32;;
78197;SDS011;67472;51.554;7.812;2023-04-27T15:26:34;6.63;;;5.20;;
78197;SDS011;67472;51.554;7.812;2023-04-27T15:29:20;8.00;;;5.05;;
78197;SDS011;67472;51.554;7.812;2023-04-27T15:32:07;6.97;;;4.88;;
78197;SDS011;67472;51.554;7.812;2023-04-27T15:34:53;6.75;;;4.95;;
78197;SDS011;67472;51.554;7.812;2023-04-27T15:37:42;11.45;;;5.68;;
78197;SDS011;67472;51.554;7.812;2023-04-27T15:40:28;8.05;;;4.85;;
78197;SDS011;67472;51.554;7.812;2023-04-27T15:43:14;8.30;;;5.47;;
78197;SDS011;67472;51.554;7.812;2023-04-27T15:46:01;8.63;;;5.03;;
78197;SDS011;67472;51.554;7.812;2023-04-27T15:48:48;8.20;;;5.10;;
78197;SDS011;67472;51.554;7.812;2023-04-27T15:51:35;11.77;;;5.45;;
78197;SDS011;67472;51.554;7.812;2023-04-27T15:54:23;7.57;;;5.18;;
78197;SDS011;67472;51.554;7.812;2023-04-27T15:57:09;6.35;;;5.07;;
78197;SDS011;67472;51.554;7.812;2023-04-27T15:59:55;5.80;;;4.60;;
78197;SDS011;67472;51.554;7.812;2023-04-27T16:02:42;9.32;;;5.07;;
78197;SDS011;67472;51.554;7.812;2023-04-27T16:05:28;7.07;;;5.22;;
78197;SDS011;67472;51.554;7.812;2023-04-27T16:08:14;8.52;;;5.30;;
78197;SDS011;67472;51.554;7.812;2023-04-27T16:11:02;9.18;;;5.05;;
78197;SDS011;67472;51.554;7.812;2023-04-27T16:13:49;8.93;;;5.30;;
78197;SDS011;67472;51.554;7.812;2023-04-27T16:16:36;7.47;;;4.90;;
78197;SDS011;67472;51.554;7.812;2023-04-27T16:19:22;13.40;;;5.13;;
78197;SDS011;67472;51.554;7.812;2023-04-27T16:22:09;10.48;;;5.72;;
78197;SDS011;67472;51.554;7.812;2023-04-27T16:24:55;6.95;;;5.25;;
78197;SDS011;67472;51.554;7.812;2023-04-27T16:27:43;7.75;;;4.82;;
78197;SDS011;67472;51.554;7.812;2023-04-27T16:30:30;9.68;;;5.07;;
78197;SDS011;67472;51.554;7.812;2023-04-27T16:33:16;5.03;;;4.47;;
78197;SDS011;67472;51.554;7.812;2023-04-27T16:36:04;7.90;;;5.18;;
78197;SDS011;67472;51.554;7.812;2023-04-27T16:38:50;7.35;;;4.55;;
78197;SDS011;67472;51.554;7.812;2023-04-27T16:41:37;9.18;;;5.35;;
78197;SDS011;67472;51.554;7.812;2023-04-27T16:44:24;11.73;;;5.65;;
78197;SDS011;67472;51.554;7.812;2023-04-27T16:47:10;9.38;;;5.10;;
78197;SDS011;67472;51.554;7.812;2023-04-27T16:49:57;9.50;;;5.63;;